createdAt,value
2016-07-30T00:00:49.461Z,0
2016-07-30T00:01:49.460Z,0
2016-07-30T00:02:49.453Z,0
2016-07-30T00:03:49.435Z,0
2016-07-30T00:04:49.438Z,0
2016-07-30T00:05:49.418Z,0
2016-07-30T00:06:49.418Z,0
2016-07-30T00:07:49.418Z,0
2016-07-30T00:08:49.410Z,0
2016-07-30T00:09:49.407Z,0
2016-07-30T00:10:49.395Z,0
2016-07-30T00:11:49.384Z,0
2016-07-30T00:12:49.373Z,0
2016-07-30T00:13:49.365Z,0
2016-07-30T00:14:49.372Z,0
2016-07-30T00:15:49.364Z,0
2016-07-30T00:16:49.330Z,0
2016-07-30T00:17:49.305Z,0
2016-07-30T00:18:49.347Z,0
2016-07-30T00:19:49.330Z,0
2016-07-30T00:20:49.319Z,0
2016-07-30T00:21:49.321Z,0
2016-07-30T00:22:49.280Z,0
2016-07-30T00:23:49.285Z,0
2016-07-30T00:24:49.279Z,0
2016-07-30T00:25:49.254Z,0
2016-07-30T00:26:49.261Z,0
2016-07-30T00:27:49.277Z,0
2016-07-30T00:28:49.261Z,0
2016-07-30T00:29:49.248Z,0
2016-07-30T00:30:49.245Z,0
2016-07-30T00:31:49.208Z,0
2016-07-30T00:32:49.222Z,0
2016-07-30T00:33:49.208Z,0
2016-07-30T00:34:49.215Z,0
2016-07-30T00:35:49.257Z,0
2016-07-30T00:36:49.190Z,0
2016-07-30T00:37:49.175Z,0
2016-07-30T00:38:49.202Z,0
2016-07-30T00:39:49.166Z,0
2016-07-30T00:40:49.179Z,0
2016-07-30T00:41:49.859Z,0
2016-07-30T00:42:49.162Z,0
2016-07-30T00:43:49.165Z,0
2016-07-30T00:44:49.128Z,0
2016-07-30T00:45:49.116Z,0
2016-07-30T00:46:49.114Z,0
2016-07-30T00:47:49.117Z,0
2016-07-30T00:48:49.122Z,0
2016-07-30T00:49:49.087Z,0
2016-07-30T00:50:49.093Z,0
2016-07-30T00:51:49.051Z,0
2016-07-30T00:52:49.064Z,0
2016-07-30T00:53:49.090Z,0
2016-07-30T00:54:49.048Z,0
2016-07-30T00:55:49.044Z,0
2016-07-30T00:56:49.050Z,0
2016-07-30T00:57:49.039Z,0
2016-07-30T00:58:49.043Z,0
2016-07-30T00:59:49.016Z,0
2016-07-30T01:00:49.024Z,0
2016-07-30T01:01:49.002Z,0
2016-07-30T01:02:49.008Z,0
2016-07-30T01:03:48.983Z,0
2016-07-30T01:04:48.996Z,0
2016-07-30T01:05:48.958Z,0
2016-07-30T01:06:48.956Z,0
2016-07-30T01:07:48.956Z,0
2016-07-30T01:08:48.971Z,0
2016-07-30T01:09:48.960Z,0
2016-07-30T01:10:48.967Z,0
2016-07-30T01:11:48.941Z,0
2016-07-30T01:12:48.929Z,0
2016-07-30T01:13:48.943Z,0
2016-07-30T01:14:48.916Z,0
2016-07-30T01:15:48.933Z,0
2016-07-30T01:16:48.921Z,0
2016-07-30T01:17:48.883Z,0
2016-07-30T01:18:48.864Z,0
2016-07-30T01:19:48.872Z,0
2016-07-30T01:20:48.863Z,0
2016-07-30T01:21:48.860Z,0
2016-07-30T01:22:48.868Z,0
2016-07-30T01:23:48.865Z,0
2016-07-30T01:24:48.838Z,0
2016-07-30T01:25:48.849Z,0
2016-07-30T01:26:48.828Z,0
2016-07-30T01:27:48.843Z,0
2016-07-30T01:28:48.806Z,0
2016-07-30T01:29:48.783Z,0
2016-07-30T01:30:48.801Z,0
2016-07-30T01:31:48.791Z,0
2016-07-30T01:32:48.813Z,0
2016-07-30T01:33:48.783Z,0
2016-07-30T01:34:48.762Z,0
2016-07-30T01:35:48.755Z,0
2016-07-30T01:36:48.777Z,0
2016-07-30T01:37:48.744Z,0
2016-07-30T01:38:48.759Z,0
2016-07-30T01:39:48.740Z,0
2016-07-30T01:40:48.740Z,0
2016-07-30T01:41:48.727Z,0
2016-07-30T01:42:48.722Z,0
2016-07-30T01:43:48.698Z,0
2016-07-30T01:44:48.713Z,0
2016-07-30T01:45:48.719Z,0
2016-07-30T01:46:48.683Z,0
2016-07-30T01:47:48.676Z,0
2016-07-30T01:48:48.678Z,0
2016-07-30T01:49:48.657Z,0
2016-07-30T01:50:48.668Z,0
2016-07-30T01:51:48.654Z,0
2016-07-30T01:52:48.678Z,0
2016-07-30T01:53:48.640Z,0
2016-07-30T01:54:48.626Z,0
2016-07-30T01:55:48.634Z,0
2016-07-30T01:56:49.314Z,0
2016-07-30T01:57:48.585Z,0
2016-07-30T01:58:48.598Z,0
2016-07-30T01:59:48.589Z,0
2016-07-30T02:00:48.612Z,0
2016-07-30T02:01:48.555Z,0
2016-07-30T02:02:48.581Z,0
2016-07-30T02:03:48.563Z,0
2016-07-30T02:04:48.582Z,0
2016-07-30T02:05:48.530Z,0
2016-07-30T02:06:48.542Z,0
2016-07-30T02:07:48.525Z,0
2016-07-30T02:08:48.539Z,0
2016-07-30T02:09:48.525Z,0
2016-07-30T02:10:48.524Z,0
2016-07-30T02:11:48.511Z,0
2016-07-30T02:12:48.498Z,0
2016-07-30T02:13:49.182Z,0
2016-07-30T02:14:48.483Z,0
2016-07-30T02:15:48.475Z,0
2016-07-30T02:16:48.480Z,0
2016-07-30T02:17:48.469Z,0
2016-07-30T02:18:48.462Z,0
2016-07-30T02:19:48.429Z,0
2016-07-30T02:20:48.427Z,0
2016-07-30T02:21:48.440Z,0
2016-07-30T02:22:48.429Z,0
2016-07-30T02:23:48.418Z,0
2016-07-30T02:24:48.385Z,0
2016-07-30T02:25:48.374Z,0
2016-07-30T02:26:48.404Z,0
2016-07-30T02:27:48.368Z,0
2016-07-30T02:28:48.365Z,0
2016-07-30T02:29:48.354Z,0
2016-07-30T02:30:48.389Z,0
2016-07-30T02:31:48.335Z,0
2016-07-30T02:32:48.357Z,0
2016-07-30T02:33:48.340Z,0
2016-07-30T02:34:48.350Z,0
2016-07-30T02:35:48.341Z,0
2016-07-30T02:36:48.351Z,0
2016-07-30T02:37:48.311Z,0
2016-07-30T02:38:48.293Z,0
2016-07-30T02:39:48.280Z,0
2016-07-30T02:40:48.294Z,0
2016-07-30T02:41:48.277Z,0
2016-07-30T02:42:48.265Z,0
2016-07-30T02:43:48.238Z,0
2016-07-30T02:44:48.267Z,0
2016-07-30T02:45:48.249Z,0
2016-07-30T02:46:48.247Z,0
2016-07-30T02:47:48.237Z,0
2016-07-30T02:48:48.236Z,0
2016-07-30T02:49:48.222Z,0
2016-07-30T02:50:48.213Z,0
2016-07-30T02:51:48.190Z,0
2016-07-30T02:52:48.177Z,0
2016-07-30T02:53:48.176Z,0
2016-07-30T02:54:48.159Z,0
2016-07-30T02:55:48.164Z,0
2016-07-30T02:56:48.172Z,0
2016-07-30T02:57:48.162Z,0
2016-07-30T02:58:48.141Z,0
2016-07-30T02:59:48.132Z,0
2016-07-30T03:00:48.156Z,0
2016-07-30T03:01:48.112Z,0
2016-07-30T03:02:48.108Z,0
2016-07-30T03:03:48.131Z,0
2016-07-30T03:04:48.107Z,0
2016-07-30T03:05:48.078Z,0
2016-07-30T03:06:48.068Z,0
2016-07-30T03:07:48.095Z,0
2016-07-30T03:08:48.065Z,0
2016-07-30T03:09:48.043Z,0
2016-07-30T03:10:48.041Z,0
2016-07-30T03:11:48.077Z,0
2016-07-30T03:12:48.033Z,0
2016-07-30T03:13:48.024Z,0
2016-07-30T03:14:48.042Z,4
2016-07-30T03:15:48.015Z,0
2016-07-30T03:16:48.009Z,4
2016-07-30T03:17:48.011Z,4
2016-07-30T03:18:47.981Z,4
2016-07-30T03:19:48.023Z,8
2016-07-30T03:20:47.982Z,8
2016-07-30T03:21:47.981Z,8
2016-07-30T03:22:47.997Z,8
2016-07-30T03:23:47.972Z,8
2016-07-30T03:24:47.978Z,12
2016-07-30T03:25:47.961Z,12
2016-07-30T03:26:47.960Z,16
2016-07-30T03:27:47.957Z,20
2016-07-30T03:28:47.925Z,24
2016-07-30T03:29:47.942Z,28
2016-07-30T03:30:47.938Z,28
2016-07-30T03:31:47.897Z,36
2016-07-30T03:32:47.881Z,48
2016-07-30T03:33:47.910Z,52
2016-07-30T03:34:47.891Z,64
2016-07-30T03:35:47.901Z,76
2016-07-30T03:36:48.096Z,92
2016-07-30T03:37:47.889Z,112
2016-07-30T03:38:47.856Z,120
2016-07-30T03:39:47.837Z,136
2016-07-30T03:40:47.852Z,148
2016-07-30T03:41:47.858Z,168
2016-07-30T03:42:47.842Z,192
2016-07-30T03:43:47.814Z,232
2016-07-30T03:44:47.817Z,252
2016-07-30T03:45:47.821Z,272
2016-07-30T03:46:47.800Z,304
2016-07-30T03:47:47.815Z,352
2016-07-30T03:48:47.790Z,380
2016-07-30T03:49:47.790Z,428
2016-07-30T03:50:47.771Z,476
2016-07-30T03:51:47.758Z,504
2016-07-30T03:53:47.758Z,576
2016-07-30T03:54:47.757Z,628
2016-07-30T03:55:47.737Z,688
2016-07-30T03:56:47.737Z,808
2016-07-30T03:57:47.716Z,924
2016-07-30T03:58:47.701Z,976
2016-07-30T03:59:47.713Z,972
2016-07-30T04:00:47.699Z,1144
2016-07-30T04:01:47.716Z,1320
2016-07-30T04:02:47.685Z,1412
2016-07-30T04:03:47.677Z,1292
2016-07-30T04:04:47.676Z,1324
2016-07-30T04:05:47.639Z,1440
2016-07-30T04:06:47.677Z,1480
2016-07-30T04:08:47.653Z,1432
2016-07-30T04:09:47.630Z,1588
2016-07-30T04:10:47.622Z,1608
2016-07-30T04:11:47.622Z,1696
2016-07-30T04:12:47.606Z,1932
2016-07-30T04:13:47.620Z,2240
2016-07-30T04:14:47.604Z,2112
2016-07-30T04:15:47.583Z,1960
2016-07-30T04:16:47.572Z,2056
2016-07-30T04:17:47.569Z,2292
2016-07-30T04:18:47.566Z,3060
2016-07-30T04:19:47.566Z,2284
2016-07-30T04:20:47.539Z,2488
2016-07-30T04:21:47.539Z,2348
2016-07-30T04:23:47.542Z,2248
2016-07-30T04:24:47.544Z,2316
2016-07-30T04:25:47.522Z,2380
2016-07-30T04:26:47.522Z,2780
2016-07-30T04:27:47.480Z,2664
2016-07-30T04:28:47.504Z,2728
2016-07-30T04:29:47.467Z,2588
2016-07-30T04:30:48.184Z,2824
2016-07-30T04:31:47.473Z,2896
2016-07-30T04:32:47.439Z,2920
2016-07-30T04:33:47.463Z,2984
2016-07-30T04:34:47.429Z,3148
2016-07-30T04:35:47.443Z,3236
2016-07-30T04:36:47.526Z,3692
2016-07-30T04:37:47.385Z,3524
2016-07-30T04:38:47.420Z,3772
2016-07-30T04:39:47.392Z,3400
2016-07-30T04:40:47.403Z,3476
2016-07-30T04:41:47.384Z,3556
2016-07-30T04:42:47.387Z,3788
2016-07-30T04:43:47.369Z,3524
2016-07-30T04:44:47.360Z,3604
2016-07-30T04:45:47.326Z,3720
2016-07-30T04:46:47.356Z,3864
2016-07-30T04:47:47.342Z,6324
2016-07-30T04:48:47.317Z,8560
2016-07-30T04:49:47.331Z,9408
2016-07-30T04:50:47.304Z,10072
2016-07-30T04:51:47.331Z,11092
2016-07-30T04:52:47.294Z,11936
2016-07-30T04:53:47.273Z,12440
2016-07-30T04:54:47.277Z,13048
2016-07-30T04:55:47.278Z,9804
2016-07-30T04:56:47.281Z,11500
2016-07-30T04:57:47.248Z,10384
2016-07-30T04:58:47.961Z,10396
2016-07-30T04:59:47.222Z,10372
2016-07-30T05:00:47.248Z,10900
2016-07-30T05:01:47.245Z,11672
2016-07-30T05:02:47.242Z,12632
2016-07-30T05:03:47.219Z,12000
2016-07-30T05:04:47.231Z,13480
2016-07-30T05:05:47.201Z,14012
2016-07-30T05:06:47.185Z,15884
2016-07-30T05:07:47.172Z,15968
2016-07-30T05:08:47.183Z,16608
2016-07-30T05:09:47.169Z,17760
2016-07-30T05:10:47.164Z,17792
2016-07-30T05:11:47.184Z,17760
2016-07-30T05:12:47.138Z,19264
2016-07-30T05:13:47.148Z,19008
2016-07-30T05:14:47.145Z,19776
2016-07-30T05:15:47.135Z,21216
2016-07-30T05:16:47.119Z,22016
2016-07-30T05:17:47.136Z,20224
2016-07-30T05:18:47.136Z,19936
2016-07-30T05:19:47.094Z,20000
2016-07-30T05:20:47.097Z,22016
2016-07-30T05:21:47.080Z,24096
2016-07-30T05:22:47.088Z,24224
2016-07-30T05:23:47.087Z,25632
2016-07-30T05:24:47.775Z,26368
2016-07-30T05:25:47.051Z,24192
2016-07-30T05:26:47.090Z,25984
2016-07-30T05:27:47.038Z,27456
2016-07-30T05:28:47.042Z,27584
2016-07-30T05:29:47.026Z,27616
2016-07-30T05:30:47.027Z,25920
2016-07-30T05:31:47.020Z,26560
2016-07-30T05:32:47.048Z,25504
2016-07-30T05:33:47.010Z,22144
2016-07-30T05:34:47.005Z,23392
2016-07-30T05:35:46.998Z,26176
2016-07-30T05:36:47.988Z,26336
2016-07-30T05:37:46.979Z,25280
2016-07-30T05:38:46.997Z,25344
2016-07-30T05:39:46.969Z,24224
2016-07-30T05:40:46.960Z,24576
2016-07-30T05:41:46.977Z,25536
2016-07-30T05:42:46.941Z,26912
2016-07-30T05:43:46.952Z,29632
2016-07-30T05:44:46.930Z,32736
2016-07-30T05:45:46.941Z,33056
2016-07-30T05:46:46.915Z,33184
2016-07-30T05:47:46.919Z,30624
2016-07-30T05:48:46.924Z,28864
2016-07-30T05:49:46.941Z,28352
2016-07-30T05:50:46.912Z,27520
2016-07-30T05:51:47.608Z,33632
2016-07-30T05:52:46.908Z,36864
2016-07-30T05:53:46.881Z,33152
2016-07-30T05:54:46.911Z,33376
2016-07-30T05:55:46.889Z,31424
2016-07-30T05:56:46.881Z,29664
2016-07-30T05:57:46.875Z,29696
2016-07-30T05:58:46.840Z,29088
2016-07-30T05:59:46.875Z,30944
2016-07-30T06:00:48.267Z,30752
2016-07-30T06:01:46.840Z,29568
2016-07-30T06:02:46.817Z,31168
2016-07-30T06:03:46.852Z,32224
2016-07-30T06:04:46.849Z,34784
2016-07-30T06:05:46.831Z,32256
2016-07-30T06:06:46.806Z,29600
2016-07-30T06:07:46.823Z,32640
2016-07-30T06:08:46.802Z,36992
2016-07-30T06:09:46.810Z,40480
2016-07-30T06:10:46.812Z,39712
2016-07-30T06:11:46.762Z,34464
2016-07-30T06:12:46.792Z,36384
2016-07-30T06:13:46.785Z,39616
2016-07-30T06:14:46.762Z,41088
2016-07-30T06:15:46.755Z,39232
2016-07-30T06:16:46.762Z,35392
2016-07-30T06:17:46.759Z,42272
2016-07-30T06:18:46.763Z,40992
2016-07-30T06:19:46.767Z,34176
2016-07-30T06:20:46.741Z,38464
2016-07-30T06:21:46.724Z,36512
2016-07-30T06:22:46.724Z,32832
2016-07-30T06:23:46.715Z,35904
2016-07-30T06:24:46.744Z,41696
2016-07-30T06:25:46.715Z,39648
2016-07-30T06:26:46.688Z,39008
2016-07-30T06:27:46.680Z,41280
2016-07-30T06:28:46.664Z,45440
2016-07-30T06:29:46.693Z,43936
2016-07-30T06:30:46.680Z,43520
2016-07-30T06:31:46.671Z,42752
2016-07-30T06:32:46.666Z,42016
2016-07-30T06:33:46.648Z,47296
2016-07-30T06:34:46.632Z,54560
2016-07-30T06:35:46.634Z,54752
2016-07-30T06:36:46.645Z,50240
2016-07-30T06:37:46.643Z,42144
2016-07-30T06:38:46.622Z,41888
2016-07-30T06:39:46.644Z,46528
2016-07-30T06:40:46.614Z,54464
2016-07-30T06:41:46.603Z,53632
2016-07-30T06:42:46.609Z,52032
2016-07-30T06:43:46.588Z,55392
2016-07-30T06:44:46.581Z,52320
2016-07-30T06:45:46.576Z,52480
2016-07-30T06:46:46.565Z,50592
2016-07-30T06:47:46.581Z,52000
2016-07-30T06:48:46.554Z,62912
2016-07-30T06:49:46.580Z,66816
2016-07-30T06:50:46.560Z,73280
2016-07-30T06:51:47.273Z,43456
2016-07-30T06:52:46.552Z,30336
2016-07-30T06:53:46.538Z,32960
2016-07-30T06:54:46.546Z,46976
2016-07-30T06:55:46.529Z,60192
2016-07-30T06:56:46.550Z,67744
2016-07-30T06:57:46.519Z,67040
2016-07-30T06:58:46.511Z,63360
2016-07-30T06:59:46.516Z,76448
2016-07-30T07:00:46.506Z,75008
2016-07-30T07:01:46.504Z,67040
2016-07-30T07:02:46.503Z,67744
2016-07-30T07:03:46.507Z,53888
2016-07-30T07:04:46.491Z,62336
2016-07-30T07:05:46.499Z,65952
2016-07-30T07:06:46.510Z,59968
2016-07-30T07:07:46.485Z,56736
2016-07-30T07:08:46.483Z,67104
2016-07-30T07:09:47.179Z,67232
2016-07-30T07:10:46.467Z,70880
2016-07-30T07:11:46.463Z,67904
2016-07-30T07:12:46.463Z,62240
2016-07-30T07:13:46.446Z,62304
2016-07-30T07:14:46.457Z,62816
2016-07-30T07:15:46.443Z,67136
2016-07-30T07:16:46.461Z,75424
2016-07-30T07:17:46.442Z,63712
2016-07-30T07:18:46.444Z,60256
2016-07-30T07:19:46.434Z,60928
2016-07-30T07:20:46.447Z,67424
2016-07-30T07:21:46.420Z,63840
2016-07-30T07:22:46.416Z,61984
2016-07-30T07:23:46.409Z,66688
2016-07-30T07:24:46.437Z,79424
2016-07-30T07:25:46.427Z,77184
2016-07-30T07:26:46.384Z,69920
2016-07-30T07:27:46.400Z,72288
2016-07-30T07:28:46.414Z,83744
2016-07-30T07:29:46.421Z,7536
2016-07-30T07:30:46.400Z,36992
2016-07-30T07:31:46.401Z,29024
2016-07-30T07:32:46.404Z,38240
2016-07-30T07:33:46.363Z,70016
2016-07-30T07:34:46.380Z,11372
2016-07-30T07:35:46.351Z,91072
2016-07-30T07:36:46.373Z,79136
2016-07-30T07:37:46.374Z,71200
2016-07-30T07:38:46.376Z,62496
2016-07-30T07:39:46.334Z,68512
2016-07-30T07:40:46.364Z,67552
2016-07-30T07:41:46.355Z,59104
2016-07-30T07:42:46.358Z,61312
2016-07-30T07:43:46.366Z,74368
2016-07-30T07:44:46.325Z,90016
2016-07-30T07:45:46.330Z,37504
2016-07-30T07:46:46.325Z,68960
2016-07-30T07:47:46.341Z,77920
2016-07-30T07:48:46.336Z,77152
2016-07-30T07:49:46.312Z,70016
2016-07-30T07:50:46.306Z,74944
2016-07-30T07:51:46.341Z,73792
2016-07-30T07:52:46.294Z,93472
2016-07-30T07:53:46.311Z,87040
2016-07-30T07:54:46.298Z,70368
2016-07-30T07:55:46.299Z,77632
2016-07-30T07:56:46.320Z,55968
2016-07-30T07:57:46.296Z,12712
2016-07-30T07:58:46.281Z,75488
2016-07-30T07:59:46.289Z,76288
2016-07-30T08:00:46.291Z,79904
2016-07-30T08:01:46.273Z,85792
2016-07-30T08:02:46.259Z,82080
2016-07-30T08:03:46.260Z,89728
2016-07-30T08:04:46.253Z,96672
2016-07-30T08:05:46.252Z,89760
2016-07-30T08:06:46.253Z,83712
2016-07-30T08:07:46.244Z,85888
2016-07-30T08:08:46.275Z,86656
2016-07-30T08:09:46.230Z,81920
2016-07-30T08:10:46.226Z,85504
2016-07-30T08:11:46.216Z,55840
2016-07-30T08:12:46.229Z,97152
2016-07-30T08:13:46.240Z,77792
2016-07-30T08:14:46.225Z,89376
2016-07-30T08:15:46.218Z,82976
2016-07-30T08:16:46.207Z,78560
2016-07-30T08:17:46.201Z,80576
2016-07-30T08:18:46.195Z,87584
2016-07-30T08:19:46.194Z,30272
2016-07-30T08:20:46.903Z,16152
2016-07-30T08:21:46.207Z,25984
2016-07-30T08:22:46.181Z,85632
2016-07-30T08:23:46.183Z,105760
2016-07-30T08:24:46.196Z,111872
2016-07-30T08:25:46.171Z,95104
2016-07-30T08:26:46.166Z,40448
2016-07-30T08:27:46.151Z,121280
2016-07-30T08:28:46.147Z,97248
2016-07-30T08:29:46.172Z,68000
2016-07-30T08:30:46.145Z,103456
2016-07-30T08:31:46.144Z,106944
2016-07-30T08:32:46.150Z,109888
2016-07-30T08:33:46.154Z,102560
2016-07-30T08:34:46.153Z,104992
2016-07-30T08:35:46.127Z,22336
2016-07-30T08:36:46.127Z,85888
2016-07-30T08:37:46.263Z,86144
2016-07-30T08:38:46.130Z,91104
2016-07-30T08:39:46.126Z,93888
2016-07-30T08:40:46.126Z,31232
2016-07-30T08:41:46.115Z,24512
2016-07-30T08:42:46.118Z,110944
2016-07-30T08:43:46.113Z,112576
2016-07-30T08:44:46.104Z,113632
2016-07-30T08:45:46.096Z,114880
2016-07-30T08:46:46.107Z,108992
2016-07-30T08:47:46.098Z,104800
2016-07-30T08:48:46.061Z,113248
2016-07-30T08:49:46.073Z,113152
2016-07-30T08:50:46.087Z,111904
2016-07-30T08:51:46.099Z,117888
2016-07-30T08:52:46.085Z,56032
2016-07-30T08:53:46.050Z,108832
2016-07-30T08:54:46.067Z,113280
2016-07-30T08:55:46.075Z,113504
2016-07-30T08:56:46.066Z,98912
2016-07-30T08:57:46.049Z,109184
2016-07-30T08:58:46.041Z,113984
2016-07-30T08:59:46.081Z,106208
2016-07-30T09:00:46.063Z,109664
2016-07-30T09:01:46.038Z,120320
2016-07-30T09:02:46.032Z,124224
2016-07-30T09:03:46.025Z,111808
2016-07-30T09:04:46.039Z,108032
2016-07-30T09:05:46.026Z,115296
2016-07-30T09:06:46.035Z,117024
2016-07-30T09:07:46.037Z,95040
2016-07-30T09:08:46.738Z,83584
2016-07-30T09:09:46.026Z,92864
2016-07-30T09:10:46.054Z,99168
2016-07-30T09:11:46.019Z,109568
2016-07-30T09:12:46.012Z,129856
2016-07-30T09:13:46.012Z,81408
2016-07-30T09:14:46.015Z,150016
2016-07-30T09:15:45.989Z,138240
2016-07-30T09:16:46.002Z,124000
2016-07-30T09:17:46.013Z,123296
2016-07-30T09:18:45.991Z,120448
2016-07-30T09:19:46.006Z,112224
2016-07-30T09:20:46.005Z,106688
2016-07-30T09:21:45.979Z,99168
2016-07-30T09:22:46.007Z,96128
2016-07-30T09:23:46.004Z,64672
2016-07-30T09:24:45.995Z,98368
2016-07-30T09:25:46.014Z,94560
2016-07-30T09:26:46.009Z,102560
2016-07-30T09:27:45.975Z,102112
2016-07-30T09:28:46.010Z,101632
2016-07-30T09:29:45.956Z,103968
2016-07-30T09:30:46.010Z,59008
2016-07-30T09:31:46.672Z,34016
2016-07-30T09:32:45.972Z,107424
2016-07-30T09:33:45.958Z,98496
2016-07-30T09:34:45.982Z,98016
2016-07-30T09:35:45.975Z,44896
2016-07-30T09:36:45.970Z,96608
2016-07-30T09:37:46.015Z,33792
2016-07-30T09:38:45.962Z,93632
2016-07-30T09:39:45.976Z,89760
2016-07-30T09:40:45.951Z,88384
2016-07-30T09:41:45.979Z,89856
2016-07-30T09:42:45.929Z,99712
2016-07-30T09:43:45.960Z,96960
2016-07-30T09:44:45.968Z,113056
2016-07-30T09:45:45.960Z,113600
2016-07-30T09:46:45.958Z,43168
2016-07-30T09:47:45.951Z,36352
2016-07-30T09:48:45.923Z,72064
2016-07-30T09:49:45.957Z,128608
2016-07-30T09:50:45.945Z,98592
2016-07-30T09:51:45.931Z,94912
2016-07-30T09:52:45.927Z,103328
2016-07-30T09:53:45.945Z,101984
2016-07-30T09:54:45.942Z,103072
2016-07-30T09:55:45.940Z,101280
2016-07-30T09:56:45.940Z,99968
2016-07-30T09:57:45.918Z,96192
2016-07-30T09:58:45.914Z,92000
2016-07-30T09:59:45.938Z,57056
2016-07-30T10:00:45.910Z,106368
2016-07-30T10:01:45.947Z,110496
2016-07-30T10:02:45.925Z,103520
2016-07-30T10:03:45.914Z,105984
2016-07-30T10:04:45.928Z,113952
2016-07-30T10:05:45.919Z,45888
2016-07-30T10:06:45.914Z,86368
2016-07-30T10:07:45.896Z,39424
2016-07-30T10:08:45.903Z,135680
2016-07-30T10:09:45.905Z,33056
2016-07-30T10:10:45.872Z,34432
2016-07-30T10:11:45.918Z,117696
2016-07-30T10:12:45.907Z,109184
2016-07-30T10:13:45.873Z,107104
2016-07-30T10:14:45.884Z,74688
2016-07-30T10:15:45.896Z,115104
2016-07-30T10:16:45.888Z,113888
2016-07-30T10:17:45.902Z,113376
2016-07-30T10:18:45.874Z,116032
2016-07-30T10:19:45.863Z,120608
2016-07-30T10:20:45.925Z,127424
2016-07-30T10:21:45.874Z,27136
2016-07-30T10:22:45.865Z,131904
2016-07-30T10:23:45.879Z,134912
2016-07-30T10:24:45.885Z,138560
2016-07-30T10:25:45.886Z,94144
2016-07-30T10:26:45.880Z,54592
2016-07-30T10:27:45.858Z,151904
2016-07-30T10:28:45.860Z,102944
2016-07-30T10:29:45.871Z,49600
2016-07-30T10:30:45.865Z,106656
2016-07-30T10:31:45.872Z,34144
2016-07-30T10:32:45.843Z,138624
2016-07-30T10:33:45.877Z,132160
2016-07-30T10:34:45.831Z,134336
2016-07-30T10:35:45.842Z,112576
2016-07-30T10:36:45.866Z,67168
2016-07-30T10:37:46.103Z,115904
2016-07-30T10:38:45.825Z,52000
2016-07-30T10:39:45.840Z,152256
2016-07-30T10:40:45.845Z,55424
2016-07-30T10:41:45.831Z,31904
2016-07-30T10:42:45.832Z,146592
2016-07-30T10:43:45.814Z,70336
2016-07-30T10:44:45.841Z,46368
2016-07-30T10:45:45.810Z,33440
2016-07-30T10:46:45.828Z,38208
2016-07-30T10:47:45.812Z,132928
2016-07-30T10:48:45.806Z,48832
2016-07-30T10:49:45.814Z,134944
2016-07-30T10:50:46.481Z,40768
2016-07-30T10:51:45.788Z,90464
2016-07-30T10:52:45.817Z,38272
2016-07-30T10:53:45.796Z,30176
2016-07-30T10:54:45.786Z,35456
2016-07-30T10:55:45.781Z,104192
2016-07-30T10:56:45.783Z,49184
2016-07-30T10:57:45.789Z,46368
2016-07-30T10:58:45.787Z,135712
2016-07-30T10:59:45.771Z,130432
2016-07-30T11:00:45.761Z,27776
2016-07-30T11:01:45.755Z,28320
2016-07-30T11:02:45.762Z,125408
2016-07-30T11:03:45.770Z,124640
2016-07-30T11:04:45.750Z,122304
2016-07-30T11:05:45.755Z,122912
2016-07-30T11:06:45.768Z,125312
2016-07-30T11:07:45.738Z,128160
2016-07-30T11:08:45.750Z,111552
2016-07-30T11:09:45.734Z,134720
2016-07-30T11:10:45.732Z,40544
2016-07-30T11:11:45.724Z,136096
2016-07-30T11:12:45.718Z,130816
2016-07-30T11:13:45.750Z,44352
2016-07-30T11:14:45.731Z,124672
2016-07-30T11:15:45.741Z,119584
2016-07-30T11:16:45.699Z,119040
2016-07-30T11:17:45.729Z,119488
2016-07-30T11:18:45.679Z,120480
2016-07-30T11:19:45.730Z,123968
2016-07-30T11:20:45.705Z,96256
2016-07-30T11:21:45.700Z,118112
2016-07-30T11:22:45.697Z,99488
2016-07-30T11:23:45.685Z,137408
2016-07-30T11:24:45.687Z,113600
2016-07-30T11:25:45.690Z,112544
2016-07-30T11:26:45.689Z,111200
2016-07-30T11:27:45.694Z,109152
2016-07-30T11:28:45.693Z,111744
2016-07-30T11:29:45.692Z,112128
2016-07-30T11:30:45.666Z,112384
2016-07-30T11:31:45.677Z,110624
2016-07-30T11:32:45.665Z,112736
2016-07-30T11:33:45.663Z,118528
2016-07-30T11:34:45.683Z,128288
2016-07-30T11:35:45.673Z,134144
2016-07-30T11:36:45.665Z,143680
2016-07-30T11:37:45.675Z,148672
2016-07-30T11:38:45.665Z,45952
2016-07-30T11:39:45.679Z,35296
2016-07-30T11:40:45.663Z,37856
2016-07-30T11:41:45.648Z,141952
2016-07-30T11:42:45.657Z,138880
2016-07-30T11:43:45.671Z,140192
2016-07-30T11:44:45.626Z,45952
2016-07-30T11:45:45.650Z,35456
2016-07-30T11:46:45.628Z,30464
2016-07-30T11:47:45.631Z,34240
2016-07-30T11:48:45.628Z,45376
2016-07-30T11:49:45.621Z,48640
2016-07-30T11:50:45.641Z,44928
2016-07-30T11:51:45.627Z,49248
2016-07-30T11:52:45.656Z,46624
2016-07-30T11:53:45.636Z,43552
2016-07-30T11:54:45.642Z,47360
2016-07-30T11:55:45.637Z,52000
2016-07-30T11:56:45.619Z,46848
2016-07-30T11:57:45.601Z,49440
2016-07-30T11:58:45.603Z,143648
2016-07-30T11:59:45.591Z,128064
2016-07-30T12:00:45.607Z,134240
2016-07-30T12:01:45.603Z,65184
2016-07-30T12:02:45.603Z,81984
2016-07-30T12:03:45.587Z,155744
2016-07-30T12:04:45.571Z,141248
2016-07-30T12:05:45.570Z,99328
2016-07-30T12:06:45.575Z,88992
2016-07-30T12:07:45.595Z,128832
2016-07-30T12:08:45.599Z,78016
2016-07-30T12:10:45.565Z,51712
2016-07-30T12:11:45.542Z,131840
2016-07-30T12:12:45.573Z,34176
2016-07-30T12:13:45.574Z,161280
2016-07-30T12:14:45.562Z,65024
2016-07-30T12:15:45.538Z,179456
2016-07-30T12:16:45.555Z,53824
2016-07-30T12:17:45.560Z,30176
2016-07-30T12:18:45.555Z,28960
2016-07-30T12:19:45.549Z,33632
2016-07-30T12:20:45.558Z,67392
2016-07-30T12:21:45.553Z,116128
2016-07-30T12:22:45.541Z,114688
2016-07-30T12:23:45.565Z,138752
2016-07-30T12:24:45.569Z,127232
2016-07-30T12:25:45.566Z,135360
2016-07-30T12:26:45.542Z,111744
2016-07-30T12:27:45.534Z,52640
2016-07-30T12:28:45.518Z,142816
2016-07-30T12:29:45.545Z,88512
2016-07-30T12:30:45.542Z,130560
2016-07-30T12:31:45.542Z,129024
2016-07-30T12:32:45.518Z,124224
2016-07-30T12:33:45.542Z,121344
2016-07-30T12:34:45.514Z,120544
2016-07-30T12:35:45.516Z,44832
2016-07-30T12:36:45.522Z,127424
2016-07-30T12:37:45.496Z,85376
2016-07-30T12:38:45.567Z,103104
2016-07-30T12:39:45.518Z,45472
2016-07-30T12:40:45.518Z,43552
2016-07-30T12:41:45.537Z,57760
2016-07-30T12:42:45.520Z,48416
2016-07-30T12:43:45.517Z,39104
2016-07-30T12:44:45.511Z,37408
2016-07-30T12:45:45.514Z,38656
2016-07-30T12:46:45.498Z,34240
2016-07-30T12:47:45.498Z,35424
2016-07-30T12:48:45.525Z,34496
2016-07-30T12:49:45.521Z,33504
2016-07-30T12:50:45.514Z,51104
2016-07-30T12:51:45.512Z,69024
2016-07-30T12:52:45.515Z,42944
2016-07-30T12:53:45.495Z,47232
2016-07-30T12:54:45.520Z,61120
2016-07-30T12:55:45.504Z,74464
2016-07-30T12:56:45.511Z,63584
2016-07-30T12:57:45.500Z,60288
2016-07-30T12:58:45.489Z,114304
2016-07-30T12:59:45.503Z,128512
2016-07-30T13:00:45.510Z,131584
2016-07-30T13:01:45.476Z,133600
2016-07-30T13:02:45.470Z,133600
2016-07-30T13:03:45.471Z,134656
2016-07-30T13:04:45.489Z,48352
2016-07-30T13:05:45.484Z,93824
2016-07-30T13:06:45.458Z,51616
2016-07-30T13:07:45.476Z,106272
2016-07-30T13:08:45.463Z,141792
2016-07-30T13:09:45.492Z,140288
2016-07-30T13:10:45.487Z,137664
2016-07-30T13:11:45.471Z,139744
2016-07-30T13:12:45.481Z,159808
2016-07-30T13:13:45.484Z,154240
2016-07-30T13:14:45.454Z,36704
2016-07-30T13:15:45.449Z,26400
2016-07-30T13:16:45.448Z,34432
2016-07-30T13:17:45.475Z,111296
2016-07-30T13:18:45.459Z,137056
2016-07-30T13:19:45.473Z,118080
2016-07-30T13:20:45.468Z,111072
2016-07-30T13:21:45.471Z,110912
2016-07-30T13:22:45.432Z,104640